Time;durP1;ratioP1;P1;durP2;ratioP2;P2;SDS_P1;SDS_P2;PMS_P1;PMS_P2;Temp;Humidity;BMP_temperature;BMP_pressure;BME280_temperature;BME280_humidity;BME280_pressure;Samples;Min_cycle;Max_cycle;Signal;HPM_P1;HPM_P2
2022/12/19 00:00:33;;;;;;;83.50;45.33;;;;;;;4.87;84.20;103102.13;4935934;28;20062;-80
2022/12/19 00:03:00;;;;;;;80.03;45.25;;;;;;;4.83;83.01;103079.44;4938141;28;20499;-81
2022/12/19 00:05:26;;;;;;;88.60;47.15;;;;;;;5.00;83.12;103104.44;4939829;28;20149;-82
2022/12/19 00:07:53;;;;;;;81.05;45.65;;;;;;;4.95;82.87;103114.22;4940651;28;20650;-82
2022/12/19 00:10:41;;;;;;;75.53;43.70;;;;;;;5.05;83.25;103121.88;4939855;28;20051;-83
2022/12/19 00:13:10;;;;;;;82.80;44.78;;;;;;;5.02;82.97;103121.94;4936350;28;20145;-82
2022/12/19 00:15:37;;;;;;;84.22;43.75;;;;;;;4.14;82.74;102980.28;4937629;28;20379;-81
2022/12/19 00:18:04;;;;;;;82.63;46.20;;;;;;;4.79;82.23;103082.19;4938907;28;20054;-80
2022/12/19 00:20:31;;;;;;;86.32;45.03;;;;;;;4.86;82.35;103108.31;4940830;28;20047;-82
2022/12/19 00:23:01;;;;;;;94.63;46.17;;;;;;;4.92;82.21;103115.19;4939113;28;20086;-81
2022/12/19 00:25:28;;;;;;;80.38;43.17;;;;;;;5.02;82.71;103143.00;4939126;28;20271;-81
2022/12/19 00:27:56;;;;;;;76.85;44.55;;;;;;;5.05;82.44;103144.69;4936815;28;20054;-82
2022/12/19 00:30:22;;;;;;;85.93;45.65;;;;;;;4.83;82.10;103120.66;4938408;28;20442;-82
2022/12/19 00:32:53;;;;;;;87.80;45.05;;;;;;;3.61;82.98;102928.94;4936154;28;20675;-82
2022/12/19 00:35:21;;;;;;;79.00;43.30;;;;;;;4.77;83.11;103113.78;4936786;28;20522;-80
2022/12/19 00:37:48;;;;;;;84.80;46.33;;;;;;;4.93;82.65;103133.56;4938353;28;20054;-80
2022/12/19 00:40:15;;;;;;;84.90;44.92;;;;;;;4.86;83.74;103139.88;4936620;28;20051;-80
2022/12/19 00:42:42;;;;;;;95.00;46.50;;;;;;;4.63;83.83;103119.38;4938734;28;20414;-82
2022/12/19 00:45:17;;;;;;;78.18;43.03;;;;;;;4.55;83.93;103115.22;4937565;28;20411;-82
2022/12/19 00:47:44;;;;;;;98.15;43.90;;;;;;;4.87;84.08;103157.41;4936880;28;20145;-82
2022/12/19 00:50:10;;;;;;;71.40;42.50;;;;;;;4.71;83.47;103137.63;4934567;28;20141;-81
2022/12/19 00:52:37;;;;;;;75.13;41.17;;;;;;;4.95;83.59;103156.34;4937912;28;20066;-80
2022/12/19 00:55:05;;;;;;;77.20;40.85;;;;;;;4.81;83.16;103152.31;4935929;28;20051;-82
2022/12/19 00:57:43;;;;;;;70.93;41.42;;;;;;;3.58;83.26;102944.78;4937375;28;20055;-81
2022/12/19 01:00:26;;;;;;;76.22;41.17;;;;;;;4.78;83.57;103170.81;4935152;28;20464;-81
2022/12/19 01:02:53;;;;;;;73.03;39.88;;;;;;;4.77;83.03;103153.25;4948855;28;20504;-82
2022/12/19 01:05:20;;;;;;;65.05;38.67;;;;;;;4.88;83.07;103160.91;4957328;28;20058;-82
2022/12/19 01:07:46;;;;;;;73.95;41.00;;;;;;;4.56;83.29;103123.03;4940920;28;20583;-82
2022/12/19 01:10:13;;;;;;;77.00;40.22;;;;;;;4.82;83.70;103168.94;4941419;28;20058;-80
2022/12/19 01:12:46;;;;;;;74.70;41.40;;;;;;;4.39;83.70;103081.34;4941864;28;20065;-82
2022/12/19 01:15:15;;;;;;;76.40;41.15;;;;;;;4.66;84.20;103127.22;4941852;28;20058;-80
2022/12/19 01:17:42;;;;;;;69.32;41.80;;;;;;;4.38;83.55;103077.00;4941423;28;20058;-82
2022/12/19 01:20:12;;;;;;;74.25;39.95;;;;;;;4.21;84.07;103047.63;4942423;28;20321;-81
2022/12/19 01:22:45;;;;;;;76.93;42.17;;;;;;;4.89;83.55;103124.00;4940633;28;20076;-81
2022/12/19 01:25:13;;;;;;;64.57;38.40;;;;;;;4.77;82.92;103120.81;4940087;28;20590;-82
2022/12/19 01:27:43;;;;;;;76.03;40.92;;;;;;;4.95;83.20;103154.56;4937879;28;20256;-82
2022/12/19 01:30:10;;;;;;;75.88;41.38;;;;;;;4.82;83.63;103134.72;4952555;28;20583;-80
2022/12/19 01:32:38;;;;;;;78.65;41.40;;;;;;;4.31;82.80;103054.38;4940931;28;20646;-81
2022/12/19 01:35:05;;;;;;;76.93;42.92;;;;;;;4.67;83.25;103120.19;4939175;28;20663;-82
2022/12/19 01:37:35;;;;;;;68.60;40.25;;;;;;;4.85;83.76;103150.44;4940326;28;20457;-82
2022/12/19 01:40:02;;;;;;;79.03;41.17;;;;;;;4.87;83.36;103149.50;4956312;28;20055;-82
2022/12/19 01:42:38;;;;;;;77.38;42.15;;;;;;;4.83;82.77;103132.06;4951340;28;20135;-82
2022/12/19 01:45:07;;;;;;;73.75;40.75;;;;;;;4.82;83.60;103140.84;4945512;28;20882;-81
2022/12/19 01:47:46;;;;;;;76.25;42.08;;;;;;;4.80;83.89;103142.66;4937787;28;20047;-82
2022/12/19 01:51:10;;;;;;;71.22;40.15;;;;;;;4.87;83.40;103144.25;4939513;28;20390;-81
2022/12/19 01:53:45;;;;;;;72.97;42.42;;;;;;;4.50;83.34;103081.13;4938737;28;20061;-83
2022/12/19 01:56:23;;;;;;;77.47;41.05;;;;;;;4.84;83.69;103131.16;4938832;28;20054;-81
2022/12/19 01:58:55;;;;;;;72.55;41.55;;;;;;;4.66;83.47;103103.53;4943504;28;20591;-82
2022/12/19 02:01:34;;;;;;;88.15;43.10;;;;;;;4.46;84.08;103054.00;4938666;28;20443;-81
2022/12/19 02:04:15;;;;;;;82.18;45.92;;;;;;;4.86;83.85;103121.47;4953841;28;20152;-81
2022/12/19 02:06:42;;;;;;;76.07;41.60;;;;;;;4.93;83.04;103115.16;4945740;28;20054;-81
2022/12/19 02:09:10;;;;;;;71.60;40.10;;;;;;;4.67;82.95;103078.94;4960993;28;20591;-82
2022/12/19 02:11:37;;;;;;;70.78;41.92;;;;;;;4.87;82.72;103110.03;4959690;28;20355;-82
2022/12/19 02:14:04;;;;;;;72.05;40.58;;;;;;;4.33;82.27;103005.25;4943227;28;20504;-81
2022/12/19 02:16:55;;;;;;;68.10;40.40;;;;;;;4.88;82.61;103109.13;4962213;28;20604;-82
2022/12/19 02:19:52;;;;;;;77.13;41.08;;;;;;;4.80;82.85;103111.06;4944860;28;20046;-80
2022/12/19 02:22:25;;;;;;;73.80;40.75;;;;;;;4.83;82.91;103126.81;4942518;28;20455;-80
2022/12/19 02:25:38;;;;;;;67.75;41.40;;;;;;;4.83;82.96;103126.81;4942217;28;20156;-81
2022/12/19 02:28:35;;;;;;;69.35;40.00;;;;;;;4.91;83.19;103129.25;4933881;28;20054;-83
2022/12/19 02:31:27;;;;;;;70.95;40.80;;;;;;;4.88;81.98;103119.66;4942535;28;20050;-81
2022/12/19 02:34:18;;;;;;;70.35;41.15;;;;;;;5.00;82.02;103131.66;4901216;28;20466;-81
2022/12/19 02:36:47;;;;;;;70.97;40.17;;;;;;;4.93;81.62;103128.31;4923215;28;20448;-80
2022/12/19 02:39:44;;;;;;;76.68;40.70;;;;;;;4.96;81.95;103126.50;4924152;28;20213;-80
2022/12/19 02:42:15;;;;;;;72.30;41.03;;;;;;;4.71;82.37;103108.69;4923873;28;20306;-81
2022/12/19 02:44:51;;;;;;;63.35;38.10;;;;;;;4.47;82.23;103060.16;4923776;28;20074;-81
2022/12/19 02:47:28;;;;;;;71.40;39.65;;;;;;;4.85;81.64;103113.59;4923240;28;20121;-81
2022/12/19 02:50:03;;;;;;;62.13;37.58;;;;;;;4.45;81.87;103057.56;4924810;28;20057;-81
2022/12/19 02:52:33;;;;;;;57.80;36.42;;;;;;;4.74;81.77;103121.75;4942674;28;20047;-81
2022/12/19 02:55:06;;;;;;;55.17;34.28;;;;;;;4.20;81.69;103040.59;4925000;28;20457;-82
2022/12/19 02:57:50;;;;;;;58.72;35.08;;;;;;;4.69;81.53;103145.56;4927246;28;20063;-82
2022/12/19 03:00:25;;;;;;;54.83;33.03;;;;;;;4.71;81.92;103145.53;4925155;28;20051;-82
2022/12/19 03:03:15;;;;;;;58.25;34.55;;;;;;;4.63;81.69;103140.41;4938425;28;20058;-81
2022/12/19 03:05:53;;;;;;;53.90;32.92;;;;;;;3.49;81.95;102929.22;4949094;28;20065;-81
2022/12/19 03:08:30;;;;;;;63.05;34.72;;;;;;;4.64;81.10;103120.25;4966656;28;20439;-81
2022/12/19 03:11:04;;;;;;;51.85;32.22;;;;;;;4.61;81.42;103120.31;4952849;28;20059;-81
2022/12/19 03:13:38;;;;;;;57.13;33.00;;;;;;;4.58;81.87;103136.19;4970617;28;20054;-81
2022/12/19 03:16:08;;;;;;;48.45;31.05;;;;;;;4.56;81.21;103132.72;4954449;28;20483;-81
2022/12/19 03:18:37;;;;;;;49.88;32.60;;;;;;;4.55;81.85;103137.13;4957723;28;20671;-81
2022/12/19 03:21:28;;;;;;;48.85;32.00;;;;;;;4.16;82.10;103060.00;4975915;28;20053;-82
2022/12/19 03:23:57;;;;;;;46.63;30.75;;;;;;;4.54;81.87;103145.03;4948625;28;20128;-82
2022/12/19 03:26:29;;;;;;;48.20;31.75;;;;;;;4.27;81.13;103079.00;4942615;28;20716;-81
2022/12/19 03:29:25;;;;;;;55.88;34.05;;;;;;;4.53;82.00;103143.31;4959777;28;20054;-80
2022/12/19 03:31:59;;;;;;;60.60;36.22;;;;;;;4.51;81.77;103140.72;4960678;28;20199;-82
2022/12/19 03:34:33;;;;;;;59.63;36.30;;;;;;;4.17;82.67;103086.25;4941980;28;20050;-81
2022/12/19 03:37:07;;;;;;;62.38;35.75;;;;;;;4.25;82.80;103091.34;4942129;28;20348;-81
2022/12/19 03:39:34;;;;;;;60.20;36.00;;;;;;;4.46;82.73;103124.16;4943048;28;20058;-81
2022/12/19 03:45:00;;;;;;;71.57;38.72;;;;;;;4.45;83.15;103123.31;4977769;28;20050;-81
2022/12/19 03:47:38;;;;;;;66.20;38.33;;;;;;;4.44;83.13;103120.72;4958860;28;20082;-81
2022/12/19 03:50:06;;;;;;;73.72;39.85;;;;;;;4.06;82.80;103033.91;4961245;28;20124;-81
2022/12/19 03:52:58;;;;;;;75.68;41.10;;;;;;;4.50;83.54;103117.94;4961630;28;20054;-80
2022/12/19 03:55:47;;;;;;;78.83;40.90;;;;;;;4.35;84.07;103087.59;4961307;28;20448;-82
2022/12/19 03:58:27;;;;;;;76.25;40.38;;;;;;;4.54;83.47;103097.69;4978763;28;20438;-80
2022/12/19 04:00:54;;;;;;;68.20;39.55;;;;;;;4.39;83.28;103067.34;4958764;28;20431;-81
2022/12/19 04:03:24;;;;;;;73.38;39.17;;;;;;;4.39;83.34;103070.84;4956682;28;20425;-79
2022/12/19 04:05:53;;;;;;;74.13;39.67;;;;;;;4.58;83.02;103099.34;4955203;28;20149;-80
2022/12/19 04:08:20;;;;;;;62.45;36.38;;;;;;;4.60;82.54;103108.06;4959815;28;20046;-81
2022/12/19 04:10:50;;;;;;;70.85;37.75;;;;;;;4.70;82.56;103109.56;4957221;28;20051;-80
2022/12/19 04:13:40;;;;;;;65.38;37.15;;;;;;;4.74;82.44;103095.44;4957373;28;20043;-79
2022/12/19 04:16:43;;;;;;;64.55;35.15;;;;;;;4.70;81.72;103091.16;4955503;28;20089;-82
2022/12/19 04:19:30;;;;;;;60.58;36.03;;;;;;;4.64;82.01;103099.22;4940571;28;20887;-80
2022/12/19 04:22:31;;;;;;;52.90;33.75;;;;;;;4.31;81.51;103028.09;4941088;28;20557;-82
2022/12/19 04:25:03;;;;;;;52.05;33.08;;;;;;;4.58;81.25;103083.56;4894908;28;20570;-81
2022/12/19 04:27:32;;;;;;;53.55;33.28;;;;;;;4.71;81.83;103090.28;4937735;28;20531;-81
2022/12/19 04:30:01;;;;;;;55.05;33.63;;;;;;;4.76;81.47;103098.03;4937384;28;20063;-81
2022/12/19 04:32:31;;;;;;;65.45;35.15;;;;;;;4.73;81.09;103104.22;4939454;28;20051;-80
2022/12/19 04:35:02;;;;;;;59.40;34.17;;;;;;;4.30;80.95;103031.63;4937987;28;20055;-81
2022/12/19 04:37:30;;;;;;;57.95;33.67;;;;;;;4.64;81.32;103107.09;4938160;28;20625;-80
2022/12/19 04:39:57;;;;;;;59.20;33.75;;;;;;;4.42;80.69;103041.84;4937336;28;20050;-81
2022/12/19 04:42:25;;;;;;;52.30;32.55;;;;;;;4.71;81.15;103101.66;4938027;28;20138;-81
2022/12/19 04:44:52;;;;;;;53.33;33.42;;;;;;;4.60;80.94;103087.03;4926255;28;20547;-82
2022/12/19 04:47:20;;;;;;;59.78;33.38;;;;;;;4.28;80.99;103036.06;4934249;28;20488;-82
2022/12/19 04:49:46;;;;;;;54.95;32.35;;;;;;;4.34;81.10;103038.53;4917270;28;20593;-82
2022/12/19 04:52:13;;;;;;;53.25;31.40;;;;;;;4.66;80.91;103077.22;4933278;28;20173;-81
2022/12/19 04:54:40;;;;;;;54.92;31.25;;;;;;;4.66;80.97;103084.22;4920894;28;20146;-81
2022/12/19 04:57:07;;;;;;;46.88;29.63;;;;;;;4.57;80.67;103066.06;4917740;28;20055;-81
2022/12/19 04:59:45;;;;;;;44.70;28.10;;;;;;;4.78;79.87;103094.47;4918135;28;20061;-81
2022/12/19 05:02:12;;;;;;;37.88;25.13;;;;;;;4.53;79.71;103051.25;4933723;28;20070;-80
2022/12/19 05:04:39;;;;;;;39.47;26.13;;;;;;;4.31;79.89;103017.56;4941422;28;20052;-80
2022/12/19 05:07:05;;;;;;;36.10;24.95;;;;;;;4.31;79.82;103016.72;4943461;28;20467;-81
2022/12/19 05:09:32;;;;;;;40.92;25.45;;;;;;;4.26;79.56;103016.81;4943467;28;20050;-81
2022/12/19 05:11:59;;;;;;;39.10;26.08;;;;;;;4.38;80.01;103058.59;4941845;28;20542;-80
2022/12/19 05:14:28;;;;;;;45.92;25.92;;;;;;;4.52;80.05;103086.34;4944949;28;20062;-80
2022/12/19 05:16:55;;;;;;;39.25;25.83;;;;;;;4.57;80.03;103082.69;4940488;28;20062;-80
2022/12/19 05:19:36;;;;;;;42.83;27.20;;;;;;;4.56;79.58;103085.34;4941975;28;20590;-81
2022/12/19 05:22:03;;;;;;;47.47;27.42;;;;;;;4.20;80.18;103032.72;4940028;28;20050;-80
2022/12/19 05:24:30;;;;;;;41.60;27.40;;;;;;;4.42;80.14;103080.44;4940739;28;20050;-80
2022/12/19 05:26:57;;;;;;;42.50;24.75;;;;;;;3.92;80.38;103017.59;4938792;28;20718;-80
2022/12/19 05:29:24;;;;;;;42.75;26.98;;;;;;;4.18;80.43;103066.97;4941504;28;20304;-80
2022/12/19 05:31:51;;;;;;;43.92;27.77;;;;;;;4.29;80.62;103088.59;4942827;28;20484;-81
2022/12/19 05:34:17;;;;;;;42.55;26.73;;;;;;;4.35;80.50;103108.66;4955172;28;20199;-81
2022/12/19 05:36:47;;;;;;;47.97;29.15;;;;;;;4.35;80.14;103106.03;4963930;28;20163;-79
2022/12/19 05:39:14;;;;;;;43.92;27.77;;;;;;;4.04;80.34;103054.13;4964342;28;20788;-81
2022/12/19 05:41:41;;;;;;;51.25;29.85;;;;;;;4.18;80.65;103090.63;4944731;28;20323;-81
2022/12/19 05:44:14;;;;;;;46.88;27.35;;;;;;;3.89;80.83;103056.22;4946487;28;20268;-79
2022/12/19 05:46:41;;;;;;;42.42;25.55;;;;;;;4.12;81.21;103097.78;4959551;28;20081;-82
2022/12/19 05:49:07;;;;;;;44.25;26.17;;;;;;;3.88;80.76;103042.19;4966900;28;20071;-80
2022/12/19 05:51:34;;;;;;;44.63;26.75;;;;;;;4.06;81.52;103097.00;4978858;28;20582;-80
2022/12/19 05:54:01;;;;;;;38.08;24.05;;;;;;;4.06;81.22;103107.53;4945171;28;20053;-81
2022/12/19 05:56:30;;;;;;;37.10;23.85;;;;;;;4.05;81.52;103105.81;4944272;28;20563;-82
2022/12/19 05:59:00;;;;;;;36.28;24.13;;;;;;;4.07;81.27;103090.84;4949932;28;20062;-82
2022/12/19 06:01:27;;;;;;;42.97;25.15;;;;;;;3.32;80.98;102982.09;4945868;28;20534;-80
2022/12/19 06:03:57;;;;;;;45.47;26.67;;;;;;;3.24;81.69;102978.75;4963224;28;20527;-82
2022/12/19 06:06:29;;;;;;;50.42;27.92;;;;;;;3.96;82.16;103108.63;4945583;28;20439;-81
2022/12/19 06:08:57;;;;;;;61.90;31.13;;;;;;;3.98;82.14;103106.84;4930252;28;20645;-81
2022/12/19 06:11:27;;;;;;;61.47;33.03;;;;;;;4.11;82.00;103124.97;4945953;28;20173;-81
2022/12/19 06:13:57;;;;;;;71.57;33.55;;;;;;;4.01;81.73;103103.28;4962260;28;20124;-81
2022/12/19 06:16:23;;;;;;;74.05;35.42;;;;;;;3.92;81.00;103078.03;4948229;28;20249;-80
2022/12/19 06:18:52;;;;;;;77.20;37.95;;;;;;;4.12;82.06;103124.06;4945239;28;20050;-80
2022/12/19 06:21:21;;;;;;;80.93;36.67;;;;;;;2.70;82.08;102895.84;4945919;28;20478;-82
2022/12/19 06:23:50;;;;;;;80.35;37.10;;;;;;;3.77;82.70;103084.50;4967590;28;20366;-82
2022/12/19 06:26:21;;;;;;;82.78;37.70;;;;;;;3.89;82.19;103078.13;4944884;28;20723;-81
2022/12/19 06:28:51;;;;;;;85.57;39.08;;;;;;;4.14;82.99;103124.91;4931051;28;20618;-81
2022/12/19 06:31:22;;;;;;;85.95;41.08;;;;;;;4.15;83.33;103121.34;4927038;28;20058;-82
2022/12/19 06:33:56;;;;;;;80.45;37.38;;;;;;;3.81;83.81;103061.63;4943128;28;20058;-81
2022/12/19 06:36:26;;;;;;;91.40;40.42;;;;;;;3.91;83.74;103063.19;4962476;28;20229;-82
2022/12/19 06:38:54;;;;;;;84.53;39.88;;;;;;;4.21;83.84;103115.97;4945262;28;20540;-81
2022/12/19 06:44:09;;;;;;;91.85;40.17;;;;;;;4.30;83.14;103105.25;4962166;28;20369;-82
2022/12/19 06:46:38;;;;;;;105.28;44.67;;;;;;;4.35;82.53;103103.38;4950362;28;20219;-82
2022/12/19 06:49:06;;;;;;;89.20;40.95;;;;;;;4.29;83.14;103082.47;4969501;28;20066;-81
2022/12/19 06:51:34;;;;;;;102.25;42.75;;;;;;;4.32;83.15;103084.16;4951782;28;20070;-79
2022/12/19 06:54:01;;;;;;;100.53;43.75;;;;;;;4.30;83.64;103081.59;4955634;28;20061;-81
2022/12/19 06:56:33;;;;;;;106.85;43.53;;;;;;;4.49;83.34;103095.16;4944517;28;20050;-81
2022/12/19 06:59:03;;;;;;;99.00;42.78;;;;;;;4.38;83.15;103086.66;4944613;28;20058;-81
2022/12/19 07:01:30;;;;;;;96.95;43.35;;;;;;;4.42;83.69;103094.47;4943670;28;20053;-82
2022/12/19 07:03:59;;;;;;;108.43;44.03;;;;;;;4.60;83.47;103119.47;4931646;28;20058;-78
2022/12/19 07:06:27;;;;;;;100.22;44.28;;;;;;;4.26;82.36;103072.88;4931106;28;20376;-79
2022/12/19 07:08:53;;;;;;;92.00;40.95;;;;;;;4.33;83.09;103104.31;4939939;28;20050;-79
2022/12/19 07:11:20;;;;;;;97.28;43.47;;;;;;;4.28;83.15;103096.53;4941767;28;20350;-79
2022/12/19 07:13:47;;;;;;;86.88;42.20;;;;;;;4.47;83.84;103113.63;4938894;28;20224;-78
2022/12/19 07:16:14;;;;;;;101.95;44.92;;;;;;;4.43;83.11;103109.31;4927997;28;20613;-79
2022/12/19 07:18:43;;;;;;;99.78;44.10;;;;;;;4.30;82.35;103078.97;4934407;28;20896;-80
2022/12/19 07:21:13;;;;;;;97.20;43.47;;;;;;;4.55;82.87;103142.38;4939233;28;20061;-78
2022/12/19 07:23:40;;;;;;;99.45;42.95;;;;;;;4.57;83.27;103147.63;4939077;28;20085;-78
2022/12/19 07:26:08;;;;;;;97.75;42.78;;;;;;;4.48;83.59;103144.28;4936420;28;20062;-79
2022/12/19 07:28:36;;;;;;;102.43;42.17;;;;;;;4.33;84.00;103102.56;4938317;28;20070;-80
2022/12/19 07:31:03;;;;;;;103.85;45.67;;;;;;;4.65;83.91;103145.66;4939680;28;20047;-77
2022/12/19 07:33:30;;;;;;;111.13;47.08;;;;;;;4.52;83.52;103131.06;4938050;28;20054;-77
2022/12/19 07:36:00;;;;;;;106.22;45.35;;;;;;;4.52;83.69;103139.81;4937763;28;20307;-79
2022/12/19 07:38:31;;;;;;;115.22;46.35;;;;;;;4.66;83.94;103157.91;4945341;28;20447;-79
2022/12/19 07:41:02;;;;;;;115.80;45.92;;;;;;;4.73;83.57;103159.50;4941851;28;20496;-79
2022/12/19 07:43:31;;;;;;;114.95;47.22;;;;;;;4.60;83.24;103142.28;4941513;28;20062;-80
2022/12/19 07:45:58;;;;;;;112.80;48.25;;;;;;;4.56;84.30;103145.88;4938857;28;20852;-78
2022/12/19 07:48:28;;;;;;;112.63;46.03;;;;;;;4.72;83.89;103174.44;4956256;28;20063;-81
2022/12/19 07:50:59;;;;;;;108.85;44.78;;;;;;;4.31;83.72;103111.38;4939974;28;20051;-80
2022/12/19 07:53:31;;;;;;;120.05;47.85;;;;;;;4.66;83.37;103157.91;4956719;28;20693;-81
2022/12/19 07:56:00;;;;;;;103.95;46.60;;;;;;;4.67;84.00;103163.13;4957959;28;20046;-78
2022/12/19 07:58:29;;;;;;;108.45;45.47;;;;;;;4.74;84.17;103173.53;4940246;28;20148;-79
2022/12/19 08:00:57;;;;;;;110.38;44.80;;;;;;;4.73;84.40;103167.38;4939409;28;20674;-78
2022/12/19 08:03:24;;;;;;;109.05;42.40;;;;;;;4.85;83.95;103171.50;4953581;28;20096;-81
2022/12/19 08:06:00;;;;;;;110.13;42.78;;;;;;;4.92;82.68;103165.19;4938366;28;20459;-81
2022/12/19 08:08:27;;;;;;;91.55;42.42;;;;;;;4.68;83.17;103132.44;4937588;28;20073;-81
2022/12/19 08:10:57;;;;;;;98.65;40.58;;;;;;;4.89;83.12;103168.75;4939532;28;20057;-81
2022/12/19 08:13:26;;;;;;;100.15;41.92;;;;;;;4.91;83.16;103164.31;4936991;28;20524;-80
2022/12/19 08:16:02;;;;;;;101.95;44.33;;;;;;;4.97;83.21;103165.06;4939754;28;20300;-81
2022/12/19 08:18:31;;;;;;;89.03;40.00;;;;;;;5.03;82.51;103171.06;4939010;28;20055;-82
2022/12/19 08:21:01;;;;;;;98.43;40.83;;;;;;;4.85;82.06;103146.03;4941351;28;20194;-81
2022/12/19 08:23:28;;;;;;;94.28;41.60;;;;;;;5.03;81.96;103170.22;4938762;28;20050;-82
2022/12/19 08:26:09;;;;;;;100.55;42.30;;;;;;;4.64;82.06;103107.09;4938422;28;20516;-80
2022/12/19 08:28:37;;;;;;;106.00;41.63;;;;;;;4.94;82.26;103166.03;4938595;28;20567;-81
2022/12/19 08:31:09;;;;;;;115.55;42.38;;;;;;;4.89;83.05;103166.13;4939285;28;20169;-81
2022/12/19 08:33:36;;;;;;;92.95;41.95;;;;;;;4.51;82.57;103093.34;4936826;28;20055;-80
2022/12/19 08:36:06;;;;;;;100.95;40.92;;;;;;;4.71;82.38;103127.97;4938088;28;20466;-80
2022/12/19 08:38:34;;;;;;;90.10;41.22;;;;;;;4.93;81.80;103167.78;4937324;28;20050;-80
2022/12/19 08:41:01;;;;;;;101.93;41.60;;;;;;;4.92;82.32;103170.44;4937706;28;20252;-79
2022/12/19 08:43:30;;;;;;;105.80;43.60;;;;;;;4.53;82.04;103102.09;4938011;28;20055;-81
2022/12/19 08:45:58;;;;;;;108.25;43.90;;;;;;;4.93;82.46;103173.06;4937343;28;20127;-81
2022/12/19 08:48:28;;;;;;;97.78;41.30;;;;;;;4.64;82.52;103130.78;4937467;28;20050;-79
2022/12/19 08:50:57;;;;;;;111.13;43.92;;;;;;;4.92;81.77;103159.91;4937083;28;20325;-82
2022/12/19 08:53:26;;;;;;;100.75;43.08;;;;;;;4.82;82.18;103156.66;4939359;28;20059;-80
2022/12/19 08:55:58;;;;;;;97.28;42.10;;;;;;;4.28;81.90;103060.59;4935301;28;20548;-81
2022/12/19 08:58:28;;;;;;;100.15;42.78;;;;;;;4.92;82.43;103159.91;4953427;28;20062;-81
2022/12/19 09:01:02;;;;;;;112.70;44.80;;;;;;;4.86;82.61;103142.53;4939161;28;20471;-80
2022/12/19 09:03:32;;;;;;;107.95;44.17;;;;;;;3.53;82.34;102902.00;4953183;28;20228;-81
2022/12/19 09:06:23;;;;;;;108.55;42.92;;;;;;;3.79;82.54;102964.44;4938209;28;20480;-81
2022/12/19 09:08:50;;;;;;;111.00;43.33;;;;;;;4.78;82.55;103146.22;4944151;28;20735;-80
2022/12/19 09:11:19;;;;;;;103.95;43.20;;;;;;;4.33;82.43;103057.84;4941160;28;20592;-80
2022/12/19 09:13:47;;;;;;;109.78;46.58;;;;;;;4.76;82.55;103125.22;4942757;28;20412;-79
2022/12/19 09:16:21;;;;;;;110.40;44.28;;;;;;;5.06;82.42;103173.63;4943530;28;20966;-79
2022/12/19 09:18:52;;;;;;;112.80;44.53;;;;;;;4.81;82.32;103128.63;4950022;28;20409;-80
2022/12/19 09:21:22;;;;;;;108.38;43.30;;;;;;;5.08;82.29;103173.59;4948779;28;20102;-79
2022/12/19 09:23:53;;;;;;;113.53;45.60;;;;;;;5.25;81.48;103176.66;4942040;28;20220;-79
2022/12/19 09:26:29;;;;;;;109.97;44.45;;;;;;;5.06;82.29;103170.13;4942537;28;20509;-80
2022/12/19 09:28:59;;;;;;;113.57;42.20;;;;;;;5.23;82.38;103190.78;4943765;28;20053;-80
2022/12/19 09:31:28;;;;;;;110.25;42.17;;;;;;;5.31;81.19;103188.81;4942453;28;20050;-79
2022/12/19 09:33:59;;;;;;;102.80;42.53;;;;;;;4.96;81.93;103131.78;4944011;28;20070;-78
2022/12/19 09:36:26;;;;;;;100.07;42.75;;;;;;;4.52;81.75;103054.78;4945563;28;20388;-78
2022/12/19 09:39:02;;;;;;;112.13;44.05;;;;;;;5.07;82.46;103150.78;4945370;28;20109;-78
2022/12/19 09:41:39;;;;;;;108.38;43.97;;;;;;;3.77;82.33;102931.22;4941102;28;20249;-77
2022/12/19 09:44:25;;;;;;;115.75;43.20;;;;;;;4.84;81.57;103102.22;4938258;28;20066;-81
2022/12/19 09:47:01;;;;;;;96.45;41.70;;;;;;;5.30;81.70;103151.06;4942832;28;20070;-79
2022/12/19 09:49:35;;;;;;;98.75;40.95;;;;;;;5.20;82.23;103157.47;4957211;28;20059;-77
2022/12/19 09:52:33;;;;;;;117.63;44.40;;;;;;;5.30;82.06;103147.56;4958661;28;20606;-76
2022/12/19 09:55:14;;;;;;;107.68;44.47;;;;;;;4.81;82.71;103068.06;4976794;28;20452;-77
2022/12/19 09:57:56;;;;;;;100.68;42.80;;;;;;;5.33;82.01;103155.38;4974589;28;20121;-79
2022/12/19 10:00:27;;;;;;;;;;;;;;;5.34;81.50;103158.00;4960259;28;20046;-77
2022/12/19 10:03:13;;;;;;;106.20;41.53;;;;;;;5.32;81.69;103157.16;4942087;28;19926;-80
2022/12/19 10:05:48;;;;;;;105.13;41.22;;;;;;;5.34;81.97;103150.09;4945011;28;20062;-80
2022/12/19 10:08:43;;;;;;;95.28;38.78;;;;;;;5.05;81.18;103090.28;4941410;28;20055;-79
2022/12/19 10:12:09;;;;;;;98.47;40.45;;;;;;;5.30;81.09;103116.81;4940210;28;20458;-80
2022/12/19 10:15:24;;;;;;;101.50;42.45;;;;;;;5.44;80.83;103141.94;4936981;28;20112;-81
2022/12/19 10:18:19;;;;;;;100.00;42.20;;;;;;;4.76;80.68;103019.97;4945616;28;20061;-80
2022/12/19 10:21:14;;;;;;;103.50;41.58;;;;;;;5.17;79.51;103078.56;4948653;28;20058;-80
2022/12/19 10:24:00;;;;;;;111.13;42.42;;;;;;;5.47;79.97;103144.50;4936859;28;20051;-79
2022/12/19 10:27:04;;;;;;;105.00;43.85;;;;;;;4.92;80.71;103066.00;4951788;28;20077;-78
2022/12/19 10:29:56;;;;;;;105.97;41.00;;;;;;;5.46;80.60;103148.91;4929825;28;20051;-82
2022/12/19 10:32:31;;;;;;;105.23;42.67;;;;;;;5.43;81.00;103137.56;4957881;28;20463;-83
2022/12/19 10:34:59;;;;;;;107.97;43.88;;;;;;;5.39;80.64;103128.00;4951147;28;20924;-80
2022/12/19 10:37:40;;;;;;;111.25;45.38;;;;;;;5.27;80.67;103105.53;4944598;28;20050;-79
2022/12/19 10:40:40;;;;;;;116.93;44.28;;;;;;;5.34;80.43;103118.47;4941642;28;20379;-79
2022/12/19 10:43:16;;;;;;;108.25;43.63;;;;;;;5.44;80.47;103129.63;4938893;28;20053;-83
2022/12/19 10:46:02;;;;;;;113.72;44.42;;;;;;;5.41;80.39;103102.50;4925002;29;20055;-85
2022/12/19 10:48:29;;;;;;;107.13;46.92;;;;;;;5.18;80.42;103085.53;4930704;28;20042;-79
2022/12/19 10:50:58;;;;;;;120.30;48.17;;;;;;;5.24;80.46;103084.50;4951187;28;20606;-79
2022/12/19 10:53:33;;;;;;;111.40;48.83;;;;;;;5.49;81.07;103121.59;4945698;28;20156;-82
2022/12/19 10:56:14;;;;;;;113.30;46.05;;;;;;;5.39;80.73;103105.19;4929754;28;20530;-82
2022/12/19 10:58:50;;;;;;;114.88;47.50;;;;;;;5.42;80.70;103098.97;4952049;28;20050;-82
2022/12/19 11:01:34;;;;;;;116.90;48.65;;;;;;;4.86;80.51;103015.31;4953683;28;20048;-84
2022/12/19 11:04:35;;;;;;;116.13;47.40;;;;;;;5.29;81.28;103091.41;4982222;28;20094;-82
2022/12/19 11:07:19;;;;;;;132.75;49.83;;;;;;;5.49;80.69;103111.06;4994994;28;20049;-82
2022/12/19 11:09:47;;;;;;;116.95;50.47;;;;;;;5.47;81.77;103108.47;4978746;28;20149;-83
2022/12/19 11:12:49;;;;;;;117.00;47.88;;;;;;;5.43;81.95;103095.41;4968488;28;20099;-81
2022/12/19 11:15:47;;;;;;;122.18;50.17;;;;;;;5.54;81.32;103103.91;4946135;28;20052;-82
2022/12/19 11:18:37;;;;;;;129.52;52.25;;;;;;;5.57;80.99;103099.38;4950267;28;20780;-81
2022/12/19 11:21:33;;;;;;;129.65;49.88;;;;;;;5.27;81.14;103056.34;4953694;28;20257;-80
2022/12/19 11:24:44;;;;;;;128.43;52.00;;;;;;;5.39;82.07;103072.69;4951560;28;20065;-80
2022/12/19 11:27:49;;;;;;;136.83;53.43;;;;;;;4.55;81.85;102925.81;4953303;28;20050;-81
2022/12/19 11:30:41;;;;;;;134.60;54.28;;;;;;;5.52;82.41;103084.63;4952772;28;20054;-82
2022/12/19 11:33:33;;;;;;;122.80;51.95;;;;;;;5.54;82.22;103067.00;4963912;28;20121;-78
2022/12/19 11:36:05;;;;;;;130.65;52.90;;;;;;;5.11;81.93;102983.91;4945796;28;20058;-81
2022/12/19 11:38:51;;;;;;;126.13;52.92;;;;;;;5.61;82.19;103084.38;4948736;28;20065;-82
2022/12/19 11:41:31;;;;;;;125.38;51.20;;;;;;;5.59;82.29;103073.00;4945896;28;20768;-82
2022/12/19 11:44:15;;;;;;;129.15;53.58;;;;;;;5.59;82.38;103066.88;4959802;28;20821;-81
2022/12/19 11:46:45;;;;;;;124.88;51.00;;;;;;;5.21;82.46;103006.44;4965122;28;20054;-80
2022/12/19 11:49:27;;;;;;;105.88;49.65;;;;;;;5.61;82.43;103068.56;4948451;28;20105;-82
2022/12/19 11:52:09;;;;;;;118.93;50.88;;;;;;;5.17;82.76;102982.88;4947636;28;20069;-81